Time;durP1;ratioP1;P1;durP2;ratioP2;P2;SDS_P1;SDS_P2;PMS_P1;PMS_P2;Temp;Humidity;BMP_temperature;BMP_pressure;BME280_temperature;BME280_humidity;BME280_pressure;Samples;Min_cycle;Max_cycle;Signal;HPM_P1;HPM_P2
2022/07/04 00:02:25;;;;;;;3.67;3.38;;;13.40;99.90;;;;;;5024158;28;20056;-66
2022/07/04 00:04:51;;;;;;;4.85;3.35;;;13.30;99.90;;;;;;5032187;28;20042;-66
2022/07/04 00:07:16;;;;;;;4.15;3.40;;;13.30;99.90;;;;;;5038658;28;20073;-66
2022/07/04 00:09:42;;;;;;;3.47;2.90;;;13.30;99.90;;;;;;5036965;28;20061;-66
2022/07/04 00:12:08;;;;;;;4.03;3.05;;;13.20;99.90;;;;;;5038998;28;20908;-66
2022/07/04 00:14:34;;;;;;;2.80;2.60;;;13.20;99.90;;;;;;5039744;28;20050;-66
2022/07/04 00:16:59;;;;;;;3.65;2.88;;;13.10;99.90;;;;;;5033130;28;20049;-66
2022/07/04 00:19:25;;;;;;;2.95;2.65;;;13.20;99.90;;;;;;5055078;28;20036;-66
2022/07/04 00:21:51;;;;;;;3.47;3.17;;;13.20;99.90;;;;;;5034938;28;20068;-66
2022/07/04 00:24:17;;;;;;;3.83;3.35;;;13.30;99.90;;;;;;5040085;28;20085;-66
2022/07/04 00:26:42;;;;;;;5.68;3.40;;;13.30;99.90;;;;;;5032521;28;20052;-66
2022/07/04 00:29:08;;;;;;;6.10;4.20;;;13.20;99.90;;;;;;5034738;28;20037;-67
2022/07/04 00:31:34;;;;;;;5.57;3.70;;;13.10;99.90;;;;;;5039249;28;20316;-66
2022/07/04 00:33:59;;;;;;;7.55;3.28;;;13.00;99.90;;;;;;5037603;28;20049;-67
2022/07/04 00:36:25;;;;;;;3.75;3.20;;;12.90;99.90;;;;;;5055310;28;20485;-66
2022/07/04 00:38:51;;;;;;;4.28;3.67;;;12.70;99.90;;;;;;5053563;28;20052;-67
2022/07/04 00:41:16;;;;;;;4.30;3.45;;;12.70;99.90;;;;;;5036480;28;20049;-66
2022/07/04 00:43:42;;;;;;;5.32;4.07;;;12.70;99.90;;;;;;5067069;28;20056;-66
2022/07/04 00:46:08;;;;;;;7.00;4.70;;;12.80;99.90;;;;;;5034275;28;20041;-66
2022/07/04 00:48:33;;;;;;;8.50;4.20;;;12.80;99.90;;;;;;5056021;28;20037;-66
2022/07/04 00:50:59;;;;;;;6.43;4.20;;;12.80;99.90;;;;;;5060010;28;20038;-66
2022/07/04 00:53:25;;;;;;;5.22;3.97;;;12.80;99.90;;;;;;5068881;28;20071;-67
2022/07/04 00:55:52;;;;;;;5.53;3.83;;;12.80;99.90;;;;;;5066498;28;20084;-66
2022/07/04 00:58:23;;;;;;;6.75;3.97;;;12.70;99.90;;;;;;5064837;28;20052;-66
2022/07/04 01:00:49;;;;;;;5.25;3.22;;;12.70;99.90;;;;;;5023992;28;20054;-66
2022/07/04 01:03:15;;;;;;;6.45;3.78;;;12.60;99.90;;;;;;5032721;28;20051;-66
2022/07/04 01:05:42;;;;;;;4.60;4.07;;;12.50;99.90;;;;;;5055987;28;20536;-66
2022/07/04 01:08:09;;;;;;;6.47;4.22;;;12.60;99.90;;;;;;5073504;28;20049;-66
2022/07/04 01:10:35;;;;;;;5.88;4.30;;;12.60;99.90;;;;;;5075698;28;20095;-66
2022/07/04 01:13:00;;;;;;;4.97;4.05;;;12.50;99.90;;;;;;5035294;28;20045;-66
2022/07/04 01:15:26;;;;;;;7.03;5.03;;;12.40;99.90;;;;;;5042216;28;20056;-66
2022/07/04 01:17:52;;;;;;;6.00;4.90;;;12.40;99.90;;;;;;5071075;28;20056;-67
2022/07/04 01:20:18;;;;;;;7.13;4.85;;;12.40;99.90;;;;;;5036373;28;20040;-66
2022/07/04 01:22:43;;;;;;;7.40;4.65;;;12.40;99.90;;;;;;5037598;28;20080;-66
2022/07/04 01:25:09;;;;;;;6.10;4.10;;;12.30;99.90;;;;;;5041798;28;20049;-66
2022/07/04 01:27:35;;;;;;;7.10;4.60;;;12.30;99.90;;;;;;5036838;28;20122;-66
2022/07/04 01:30:01;;;;;;;6.65;4.25;;;12.30;99.90;;;;;;5039745;28;20090;-66
2022/07/04 01:32:30;;;;;;;7.20;5.37;;;12.30;99.90;;;;;;5036535;28;20709;-65
2022/07/04 01:34:56;;;;;;;6.93;5.00;;;12.40;99.90;;;;;;5061242;28;20071;-66
2022/07/04 01:37:21;;;;;;;6.90;5.50;;;12.50;99.90;;;;;;5036774;28;20045;-66
2022/07/04 01:39:47;;;;;;;8.32;5.80;;;12.60;99.90;;;;;;5037134;28;20057;-66
2022/07/04 01:42:13;;;;;;;6.25;5.22;;;12.60;99.90;;;;;;5042145;28;20049;-66
2022/07/04 01:44:38;;;;;;;6.18;5.57;;;12.60;99.90;;;;;;5059258;28;20041;-66
2022/07/04 01:47:05;;;;;;;8.23;6.03;;;12.50;99.90;;;;;;5042609;28;20066;-66
2022/07/04 01:49:31;;;;;;;8.98;5.90;;;12.50;99.90;;;;;;5060487;28;20418;-66
2022/07/04 01:51:57;;;;;;;9.13;5.63;;;12.40;99.90;;;;;;5058322;28;20045;-66
2022/07/04 01:54:24;;;;;;;7.20;6.05;;;12.50;99.90;;;;;;5043996;28;20474;-66
2022/07/04 01:56:50;;;;;;;6.80;6.05;;;12.50;99.90;;;;;;5046394;28;20107;-66
2022/07/04 01:59:16;;;;;;;7.47;5.88;;;12.50;99.90;;;;;;5040107;28;20041;-66
2022/07/04 02:01:41;;;;;;;7.32;6.03;;;12.60;99.90;;;;;;5039597;28;20079;-66
2022/07/04 02:04:08;;;;;;;7.03;6.03;;;12.60;99.90;;;;;;5042048;28;20126;-66
2022/07/04 02:06:34;;;;;;;7.65;5.93;;;12.60;99.90;;;;;;5070888;28;20046;-66
2022/07/04 02:09:15;;;;;;;7.35;6.07;;;12.70;99.90;;;;;;5061629;28;20099;-66
2022/07/04 02:14:25;;;;;;;6.82;6.13;;;12.60;99.90;;;;;;5053867;28;20112;-67
2022/07/04 02:16:51;;;;;;;9.23;6.55;;;12.50;99.90;;;;;;5031639;28;20053;-66
2022/07/04 02:19:16;;;;;;;8.95;6.15;;;12.50;99.90;;;;;;5055589;28;20048;-66
2022/07/04 02:21:43;;;;;;;7.72;6.97;;;12.50;99.90;;;;;;5056440;28;20053;-66
2022/07/04 02:24:10;;;;;;;8.35;6.82;;;12.40;99.90;;;;;;5032388;28;20053;-66
2022/07/04 02:26:35;;;;;;;7.65;6.85;;;12.40;99.90;;;;;;5071617;28;20037;-66
2022/07/04 02:29:01;;;;;;;9.73;7.50;;;12.30;99.90;;;;;;5033573;28;20124;-66
2022/07/04 02:31:27;;;;;;;9.23;7.10;;;12.30;99.90;;;;;;5064538;28;20092;-66
2022/07/04 02:33:52;;;;;;;7.88;6.10;;;12.20;99.90;;;;;;5031377;28;20571;-66
2022/07/04 02:36:18;;;;;;;10.02;7.00;;;12.30;99.90;;;;;;5058404;28;20041;-66
2022/07/04 02:38:44;;;;;;;7.88;6.50;;;12.20;99.90;;;;;;5057909;28;20049;-66
2022/07/04 02:41:09;;;;;;;7.85;6.43;;;12.30;99.90;;;;;;5036726;28;20075;-66
2022/07/04 02:43:35;;;;;;;7.65;6.68;;;12.30;99.90;;;;;;5039114;28;20048;-66
2022/07/04 02:46:01;;;;;;;10.10;7.60;;;12.30;99.90;;;;;;5052047;28;20038;-66
2022/07/04 02:48:26;;;;;;;7.82;7.03;;;12.40;99.90;;;;;;5055284;28;20045;-66
2022/07/04 02:50:52;;;;;;;11.63;6.90;;;12.50;99.90;;;;;;5044048;28;20056;-66
2022/07/04 02:53:18;;;;;;;8.88;7.32;;;12.40;99.90;;;;;;5054438;28;20037;-66
2022/07/04 02:55:43;;;;;;;10.93;7.35;;;12.30;99.90;;;;;;5022864;28;20059;-66
2022/07/04 02:58:09;;;;;;;8.40;7.40;;;12.40;99.90;;;;;;5056143;28;20053;-66
2022/07/04 03:00:35;;;;;;;9.30;7.63;;;12.40;99.90;;;;;;5036015;28;20041;-66
2022/07/04 03:03:00;;;;;;;9.57;7.43;;;12.40;99.90;;;;;;5044840;28;20045;-66
2022/07/04 03:05:31;;;;;;;15.07;7.55;;;12.40;99.90;;;;;;5042032;28;20052;-66
2022/07/04 03:07:57;;;;;;;12.48;8.38;;;12.40;99.90;;;;;;5054128;28;20044;-67
2022/07/04 03:10:23;;;;;;;9.52;8.25;;;12.30;99.90;;;;;;5033622;28;20041;-66
2022/07/04 03:12:49;;;;;;;9.95;8.52;;;12.30;99.90;;;;;;5033429;28;20080;-66
2022/07/04 03:15:14;;;;;;;13.98;10.23;;;12.40;99.90;;;;;;5055090;28;20417;-66
2022/07/04 03:17:40;;;;;;;10.52;8.57;;;12.30;99.90;;;;;;5055592;28;20037;-66
2022/07/04 03:20:06;;;;;;;12.38;9.25;;;12.30;99.90;;;;;;5054793;28;20120;-66
2022/07/04 03:22:32;;;;;;;10.68;9.57;;;12.40;99.90;;;;;;5040728;28;20424;-66
2022/07/04 03:24:58;;;;;;;13.82;9.75;;;12.40;99.90;;;;;;5035865;28;20095;-66
2022/07/04 03:27:24;;;;;;;12.27;9.50;;;12.40;99.90;;;;;;5039160;28;20080;-66
2022/07/04 03:29:49;;;;;;;13.05;9.77;;;12.40;99.90;;;;;;5038293;28;20505;-66
2022/07/04 03:32:15;;;;;;;12.77;10.43;;;12.30;99.90;;;;;;5050765;28;20382;-66
2022/07/04 03:34:41;;;;;;;13.63;10.32;;;12.30;99.90;;;;;;5010781;28;20056;-66
2022/07/04 03:37:06;;;;;;;11.50;10.40;;;12.20;99.90;;;;;;5042025;28;20471;-66
2022/07/04 03:39:32;;;;;;;15.43;10.27;;;12.20;99.90;;;;;;5034969;28;20076;-66
2022/07/04 03:41:58;;;;;;;12.05;10.32;;;12.20;99.90;;;;;;5040596;28;20052;-66
2022/07/04 03:44:23;;;;;;;12.75;10.10;;;12.20;99.90;;;;;;5053612;28;20051;-66
2022/07/04 03:46:49;;;;;;;12.00;9.73;;;12.20;99.90;;;;;;5057369;28;20048;-66
2022/07/04 03:49:15;;;;;;;13.48;11.20;;;12.40;99.90;;;;;;5039934;28;20041;-66
2022/07/04 03:51:40;;;;;;;14.30;10.43;;;12.40;99.90;;;;;;5031911;28;20508;-66
2022/07/04 03:54:06;;;;;;;13.95;10.25;;;12.50;99.90;;;;;;5037282;28;20122;-66
2022/07/04 03:56:32;;;;;;;17.38;11.98;;;12.60;99.90;;;;;;5050739;28;20052;-65
2022/07/04 03:58:58;;;;;;;13.32;11.52;;;12.50;99.90;;;;;;5037077;28;20061;-66
2022/07/04 04:01:23;;;;;;;13.68;12.27;;;12.60;99.90;;;;;;5036056;28;20046;-66
2022/07/04 04:06:34;;;;;;;13.98;11.23;;;12.60;99.90;;;;;;5035089;28;20045;-65
2022/07/04 04:08:59;;;;;;;16.95;12.32;;;12.60;99.90;;;;;;5040717;28;20774;-66
2022/07/04 04:11:25;;;;;;;17.38;12.73;;;12.70;99.90;;;;;;5058170;28;20041;-66
2022/07/04 04:13:51;;;;;;;14.18;12.45;;;12.70;99.90;;;;;;5054911;28;20100;-66
2022/07/04 04:16:16;;;;;;;18.85;13.20;;;12.70;99.90;;;;;;5043604;28;20520;-66
2022/07/04 04:18:42;;;;;;;16.05;13.38;;;12.70;99.90;;;;;;5051741;28;20050;-67
2022/07/04 04:21:08;;;;;;;16.27;11.98;;;12.80;99.90;;;;;;5034082;28;20037;-68
2022/07/04 04:23:33;;;;;;;17.40;13.35;;;12.90;99.90;;;;;;5040802;28;20056;-66
2022/07/04 04:25:59;;;;;;;18.63;13.02;;;12.80;99.90;;;;;;5064127;28;20045;-66
2022/07/04 04:28:25;;;;;;;18.83;11.95;;;12.90;99.90;;;;;;5045598;28;20101;-66
2022/07/04 04:30:50;;;;;;;16.45;12.18;;;13.00;99.90;;;;;;5038012;28;20607;-65
2022/07/04 04:33:16;;;;;;;17.15;12.60;;;13.20;99.90;;;;;;5040485;28;20064;-65
2022/07/04 04:35:42;;;;;;;17.50;12.02;;;13.20;99.90;;;;;;5060137;28;20033;-67
2022/07/04 04:38:07;;;;;;;15.68;11.60;;;13.20;99.90;;;;;;5061993;28;20045;-65
2022/07/04 04:40:33;;;;;;;16.83;12.93;;;13.20;99.90;;;;;;5057014;28;20080;-66
2022/07/04 04:42:59;;;;;;;14.85;12.00;;;13.20;99.90;;;;;;5034432;28;20059;-68
2022/07/04 04:45:24;;;;;;;16.52;13.23;;;13.30;99.90;;;;;;5025288;28;20045;-66
2022/07/04 04:47:53;;;;;;;17.55;12.77;;;13.30;99.90;;;;;;5040222;28;20132;-68
2022/07/04 04:50:19;;;;;;;15.15;11.65;;;13.40;99.90;;;;;;5038091;28;20597;-66
2022/07/04 04:52:45;;;;;;;16.42;13.48;;;13.40;99.90;;;;;;5059507;28;20206;-67
2022/07/04 04:55:10;;;;;;;15.98;12.85;;;13.50;99.90;;;;;;5040620;28;20619;-67
2022/07/04 04:57:36;;;;;;;16.88;13.07;;;13.60;99.90;;;;;;5050280;28;20048;-67
2022/07/04 05:00:04;;;;;;;17.42;13.90;;;13.70;99.90;;;;;;5067829;28;20045;-67
2022/07/04 05:02:30;;;;;;;18.80;15.88;;;13.70;99.90;;;;;;5048972;28;20064;-68
2022/07/04 05:04:56;;;;;;;20.55;17.30;;;13.70;99.90;;;;;;5075784;28;20610;-67
2022/07/04 05:07:22;;;;;;;21.88;17.42;;;13.80;99.90;;;;;;5035937;28;20123;-67
2022/07/04 05:09:47;;;;;;;22.05;16.45;;;13.80;99.90;;;;;;5042993;28;20125;-67
2022/07/04 05:12:13;;;;;;;18.63;15.90;;;13.90;99.90;;;;;;5038270;28;20044;-66
2022/07/04 05:14:39;;;;;;;23.55;15.40;;;14.00;99.90;;;;;;5028861;28;20130;-66
2022/07/04 05:17:04;;;;;;;18.63;14.13;;;14.00;99.90;;;;;;5039948;28;20049;-67
2022/07/04 05:19:30;;;;;;;21.55;14.23;;;14.00;99.90;;;;;;5030334;28;20049;-67
2022/07/04 05:21:56;;;;;;;22.02;13.90;;;14.10;99.90;;;;;;5057231;28;20069;-66
2022/07/04 05:24:22;;;;;;;14.73;12.60;;;14.10;99.90;;;;;;5029849;28;20080;-66
2022/07/04 05:26:47;;;;;;;16.38;12.27;;;14.10;99.90;;;;;;5039929;28;20048;-66
2022/07/04 05:29:13;;;;;;;15.52;11.73;;;14.10;99.90;;;;;;5027990;28;20510;-66
2022/07/04 05:31:39;;;;;;;15.75;11.90;;;14.20;99.90;;;;;;5021721;28;20060;-66
2022/07/04 05:34:04;;;;;;;16.92;12.68;;;14.20;99.90;;;;;;5029008;28;20472;-66
2022/07/04 05:36:30;;;;;;;14.93;12.35;;;14.20;99.90;;;;;;5040009;28;20049;-66
2022/07/04 05:38:57;;;;;;;14.38;11.18;;;14.30;99.90;;;;;;5046838;28;20059;-66
2022/07/04 05:41:23;;;;;;;16.20;11.25;;;14.40;99.90;;;;;;5040414;28;20049;-67
2022/07/04 05:43:48;;;;;;;15.65;11.77;;;14.40;99.90;;;;;;5013147;28;20151;-66
2022/07/04 05:46:14;;;;;;;13.88;10.88;;;14.40;99.90;;;;;;5038453;28;20037;-65
2022/07/04 05:48:40;;;;;;;15.05;12.00;;;14.50;99.90;;;;;;5023916;28;20056;-68
2022/07/04 05:51:05;;;;;;;13.48;10.40;;;14.50;99.90;;;;;;5039439;28;20244;-67
2022/07/04 05:53:31;;;;;;;15.43;11.13;;;14.60;99.90;;;;;;5040232;28;20322;-66
2022/07/04 05:55:57;;;;;;;15.60;11.93;;;14.60;99.90;;;;;;5036158;28;20053;-66
2022/07/04 05:58:23;;;;;;;16.00;10.35;;;14.60;99.90;;;;;;5011667;28;20049;-67
2022/07/04 06:00:51;;;;;;;16.55;11.05;;;14.70;99.90;;;;;;5037859;28;20453;-67
2022/07/04 06:03:17;;;;;;;12.73;10.82;;;14.80;99.90;;;;;;5013898;28;20112;-66
2022/07/04 06:05:43;;;;;;;16.08;12.27;;;14.90;99.90;;;;;;5041606;28;20118;-66
2022/07/04 06:08:08;;;;;;;21.52;11.48;;;14.90;99.90;;;;;;5024608;28;20356;-67
2022/07/04 06:10:34;;;;;;;18.80;11.75;;;15.00;99.90;;;;;;5024317;28;20041;-67
2022/07/04 06:13:00;;;;;;;18.48;12.48;;;15.10;99.90;;;;;;5027868;28;20055;-67
2022/07/04 06:15:25;;;;;;;11.52;9.90;;;15.10;99.90;;;;;;5006841;28;20066;-67
2022/07/04 06:17:51;;;;;;;18.63;11.02;;;15.10;99.90;;;;;;5037794;28;20366;-67
2022/07/04 06:20:17;;;;;;;14.45;10.90;;;15.20;99.90;;;;;;5006383;28;20049;-66
2022/07/04 06:22:46;;;;;;;15.63;11.73;;;15.30;99.90;;;;;;5055745;28;20095;-67
2022/07/04 06:25:20;;;;;;;14.30;11.88;;;15.50;99.90;;;;;;5027761;28;20045;-66
2022/07/04 06:27:47;;;;;;;16.35;11.27;;;15.60;99.90;;;;;;5075417;28;20075;-66
2022/07/04 06:30:14;;;;;;;12.43;9.48;;;15.80;99.90;;;;;;5026702;28;20544;-67
2022/07/04 06:32:51;;;;;;;13.57;9.30;;;15.90;99.90;;;;;;5058156;28;20053;-66
2022/07/04 06:38:05;;;;;;;10.27;6.72;;;16.00;99.90;;;;;;5045831;28;20060;-68
2022/07/04 06:40:31;;;;;;;14.27;7.07;;;16.10;99.90;;;;;;5058301;28;20420;-67
2022/07/04 06:42:57;;;;;;;11.60;7.68;;;16.20;99.90;;;;;;5052137;28;20051;-68
2022/07/04 06:45:23;;;;;;;11.55;6.97;;;16.20;99.90;;;;;;5034465;28;20060;-67
2022/07/04 06:47:49;;;;;;;9.23;5.93;;;16.20;99.90;;;;;;5057168;28;20052;-67
2022/07/04 06:50:17;;;;;;;10.50;5.93;;;16.10;99.90;;;;;;5047751;28;20070;-67
2022/07/04 06:52:43;;;;;;;9.80;6.00;;;16.20;99.90;;;;;;5075889;28;20106;-67
2022/07/04 06:55:09;;;;;;;9.07;6.03;;;16.20;99.90;;;;;;5022136;28;20083;-66
2022/07/04 06:57:35;;;;;;;10.10;5.05;;;16.30;99.90;;;;;;5040111;28;20040;-67
2022/07/04 07:00:02;;;;;;;12.23;5.90;;;16.30;99.90;;;;;;5031062;28;20611;-66
2022/07/04 07:02:28;;;;;;;11.60;5.55;;;16.40;99.90;;;;;;5056523;28;20100;-66
2022/07/04 07:04:56;;;;;;;8.07;5.65;;;16.40;99.90;;;;;;5034033;28;20091;-66
2022/07/04 07:07:24;;;;;;;10.50;6.88;;;16.50;99.90;;;;;;5056072;28;20104;-67
2022/07/04 07:09:51;;;;;;;10.93;6.45;;;16.50;99.90;;;;;;5043861;28;20052;-66
2022/07/04 07:12:16;;;;;;;14.95;7.63;;;16.50;99.90;;;;;;5058504;28;20040;-66
2022/07/04 07:14:42;;;;;;;10.40;6.53;;;16.60;99.90;;;;;;5028381;28;20251;-66
2022/07/04 07:17:08;;;;;;;13.05;6.63;;;16.60;99.90;;;;;;5054250;28;20098;-67
2022/07/04 07:19:34;;;;;;;8.98;6.63;;;16.70;99.90;;;;;;5026181;28;20180;-67
2022/07/04 07:21:59;;;;;;;11.48;6.88;;;16.80;99.90;;;;;;5070641;28;20409;-67
2022/07/04 07:24:25;;;;;;;13.45;7.40;;;16.90;99.90;;;;;;5047168;28;20135;-67
2022/07/04 07:26:52;;;;;;;13.65;7.47;;;17.00;99.90;;;;;;5069023;28;20151;-67
2022/07/04 07:29:18;;;;;;;11.02;7.60;;;17.00;99.90;;;;;;5034753;28;20285;-67
2022/07/04 07:31:43;;;;;;;14.90;8.20;;;17.10;99.90;;;;;;5058711;28;20040;-67
2022/07/04 07:34:09;;;;;;;11.10;7.88;;;17.10;99.90;;;;;;5038769;28;20057;-66
2022/07/04 07:36:35;;;;;;;12.45;7.70;;;17.10;99.90;;;;;;5050539;28;20075;-66
2022/07/04 07:39:01;;;;;;;12.73;7.82;;;17.20;99.90;;;;;;5032592;28;20049;-67
2022/07/04 07:41:26;;;;;;;12.20;7.68;;;17.20;99.90;;;;;;5046570;28;20121;-67
2022/07/04 07:43:52;;;;;;;14.32;8.18;;;17.30;99.90;;;;;;5038191;28;20080;-67
2022/07/04 07:46:18;;;;;;;12.48;7.95;;;17.40;99.90;;;;;;5043169;28;20054;-67
2022/07/04 07:48:44;;;;;;;12.18;7.07;;;17.50;99.90;;;;;;5046486;28;20056;-66
2022/07/04 07:51:15;;;;;;;11.57;8.10;;;17.60;99.90;;;;;;5059822;28;20074;-66
2022/07/04 07:53:41;;;;;;;9.10;6.72;;;17.70;99.90;;;;;;5045403;28;20063;-66
2022/07/04 07:56:06;;;;;;;10.57;7.82;;;17.70;99.90;;;;;;5061136;28;20556;-66
2022/07/04 07:58:32;;;;;;;10.48;6.88;;;17.80;99.90;;;;;;5043960;28;20079;-67
2022/07/04 08:00:58;;;;;;;14.13;6.45;;;17.90;99.90;;;;;;5042285;28;20051;-67
2022/07/04 08:06:09;;;;;;;11.80;5.45;;;18.20;99.90;;;;;;5033852;28;20077;-66
2022/07/04 08:08:34;;;;;;;13.73;6.03;;;18.50;99.90;;;;;;5061925;28;20132;-67
2022/07/04 08:11:00;;;;;;;11.73;5.70;;;18.60;99.90;;;;;;5039602;28;20121;-67
2022/07/04 08:13:26;;;;;;;10.43;5.70;;;18.70;99.90;;;;;;5063219;28;20086;-67
2022/07/04 08:15:52;;;;;;;9.50;5.07;;;18.70;99.90;;;;;;5048002;28;20045;-67
2022/07/04 08:18:18;;;;;;;10.23;5.18;;;18.80;99.90;;;;;;5063100;28;20041;-67
2022/07/04 08:20:44;;;;;;;9.85;4.55;;;18.80;99.90;;;;;;5052614;28;20061;-67
2022/07/04 08:23:10;;;;;;;9.35;4.65;;;18.80;99.90;;;;;;5062864;28;20114;-66
2022/07/04 08:25:36;;;;;;;13.02;5.10;;;18.70;99.90;;;;;;5022608;28;20491;-66
2022/07/04 08:28:01;;;;;;;11.95;5.82;;;18.60;99.90;;;;;;5060395;28;20108;-66
2022/07/04 08:30:27;;;;;;;10.95;4.70;;;18.50;99.90;;;;;;5032837;28;20072;-66
2022/07/04 08:32:53;;;;;;;10.00;4.57;;;18.40;99.90;;;;;;5036903;28;20087;-66
2022/07/04 08:35:19;;;;;;;8.60;4.38;;;18.30;99.90;;;;;;5049966;28;20580;-67
2022/07/04 08:37:44;;;;;;;7.88;4.10;;;18.30;99.90;;;;;;5043345;28;20053;-67
2022/07/04 08:40:11;;;;;;;9.68;4.65;;;18.20;99.90;;;;;;5035546;28;20053;-67
2022/07/04 08:42:38;;;;;;;7.60;4.10;;;18.20;99.90;;;;;;5060993;28;20552;-67
2022/07/04 08:45:06;;;;;;;8.32;4.10;;;18.20;99.90;;;;;;5014943;28;20611;-67
2022/07/04 08:47:35;;;;;;;11.20;4.85;;;18.40;99.90;;;;;;5058363;28;20052;-67
2022/07/04 08:50:23;;;;;;;15.05;4.95;;;18.50;99.90;;;;;;5036393;28;20460;-66
2022/07/04 08:53:27;;;;;;;14.50;4.55;;;18.70;99.90;;;;;;5060406;28;20467;-67
2022/07/04 08:58:39;;;;;;;7.75;3.78;;;18.90;99.90;;;;;;4986609;28;20192;-67
2022/07/04 09:01:08;;;;;;;9.07;4.20;;;19.10;99.90;;;;;;4999746;28;20187;-66
2022/07/04 09:03:34;;;;;;;9.32;3.38;;;19.00;99.90;;;;;;4987167;28;20384;-68
2022/07/04 09:06:00;;;;;;;9.18;3.17;;;19.10;99.90;;;;;;4974889;28;20038;-67
2022/07/04 09:08:27;;;;;;;9.52;2.45;;;19.30;99.90;;;;;;4989375;28;20069;-67
2022/07/04 09:10:53;;;;;;;5.60;2.53;;;19.50;99.90;;;;;;4971736;28;20047;-67
2022/07/04 09:13:19;;;;;;;8.50;2.72;;;19.60;99.90;;;;;;4981300;28;20058;-67
2022/07/04 09:15:47;;;;;;;7.72;2.55;;;19.60;99.90;;;;;;4990587;28;20452;-67
2022/07/04 09:18:24;;;;;;;7.82;2.33;;;19.60;99.90;;;;;;5017850;28;20197;-66
2022/07/04 09:20:51;;;;;;;5.43;2.20;;;19.70;99.90;;;;;;4989931;28;20046;-66
2022/07/04 09:23:25;;;;;;;7.25;2.75;;;19.70;99.90;;;;;;5014960;28;20058;-66
2022/07/04 09:26:09;;;;;;;7.97;2.20;;;19.80;99.90;;;;;;4977924;28;20082;-67
2022/07/04 09:28:35;;;;;;;7.55;2.58;;;19.70;99.90;;;;;;4983652;28;20393;-67
2022/07/04 09:31:01;;;;;;;6.18;2.10;;;20.00;99.90;;;;;;5038331;28;20060;-66
2022/07/04 09:33:49;;;;;;;8.27;2.65;;;20.00;99.90;;;;;;5074453;28;20045;-66
2022/07/04 09:36:18;;;;;;;3.97;1.88;;;20.00;99.90;;;;;;5032993;28;20040;-67
2022/07/04 09:38:44;;;;;;;6.13;2.25;;;20.10;99.90;;;;;;5067821;28;20072;-66
2022/07/04 09:41:25;;;;;;;4.00;1.60;;;20.00;99.90;;;;;;5053041;28;20053;-67
2022/07/04 09:44:05;;;;;;;9.45;2.10;;;19.90;99.90;;;;;;5048580;28;20049;-68
2022/07/04 09:46:31;;;;;;;4.68;1.80;;;19.70;99.90;;;;;;5059523;28;20127;-68
2022/07/04 09:48:57;;;;;;;3.55;1.70;;;19.50;99.90;;;;;;5049110;28;20052;-67
2022/07/04 09:51:42;;;;;;;5.00;1.80;;;19.40;99.90;;;;;;5076827;28;20090;-67
2022/07/04 09:54:15;;;;;;;5.15;2.33;;;19.30;99.90;;;;;;5067291;28;20091;-67
2022/07/04 09:57:01;;;;;;;4.40;1.98;;;19.40;99.90;;;;;;5060132;28;20060;-66
2022/07/04 09:59:27;;;;;;;4.47;2.38;;;19.50;99.90;;;;;;5060816;28;20056;-67
2022/07/04 10:02:10;;;;;;;8.70;2.70;;;19.80;99.90;;;;;;5057583;28;20048;-67
2022/07/04 10:04:48;;;;;;;7.28;3.03;;;19.80;99.90;;;;;;5048555;28;20056;-67
2022/07/04 10:07:43;;;;;;;5.13;2.20;;;19.80;99.90;;;;;;5076892;28;20044;-67
2022/07/04 10:10:34;;;;;;;6.35;2.10;;;19.70;99.90;;;;;;5047683;28;20060;-67
2022/07/04 10:13:01;;;;;;;5.03;2.20;;;19.90;99.90;;;;;;5077177;28;20042;-66
2022/07/04 10:15:27;;;;;;;6.60;2.67;;;20.00;99.90;;;;;;5048671;28;20098;-67
2022/07/04 10:17:53;;;;;;;6.22;2.00;;;20.00;99.90;;;;;;5058289;28;20057;-68
2022/07/04 10:20:18;;;;;;;4.88;2.17;;;20.00;99.90;;;;;;5046929;28;20555;-67
2022/07/04 10:22:44;;;;;;;6.45;2.13;;;20.20;99.90;;;;;;5029342;28;20120;-67
2022/07/04 10:25:10;;;;;;;4.00;2.30;;;20.30;99.90;;;;;;5036160;28;20052;-67
2022/07/04 10:27:37;;;;;;;3.28;2.20;;;20.40;99.90;;;;;;5046411;28;20157;-66
2022/07/04 10:30:06;;;;;;;5.25;1.92;;;20.40;99.90;;;;;;5039548;28;20044;-67
2022/07/04 10:32:33;;;;;;;3.83;1.80;;;20.30;99.90;;;;;;5034966;28;20044;-66
2022/07/04 10:34:59;;;;;;;4.40;1.95;;;20.40;99.90;;;;;;5035875;28;20055;-66
2022/07/04 10:37:26;;;;;;;2.97;1.60;;;20.30;99.90;;;;;;5047453;28;20048;-67
2022/07/04 10:39:52;;;;;;;6.20;2.22;;;20.40;99.90;;;;;;5050995;28;20087;-66
2022/07/04 10:42:25;;;;;;;4.25;2.00;;;20.40;99.90;;;;;;5052856;28;20049;-68
2022/07/04 10:44:51;;;;;;;5.55;2.17;;;20.40;99.90;;;;;;5034255;28;20511;-66
2022/07/04 10:47:25;;;;;;;7.22;2.13;;;20.30;99.90;;;;;;5042669;28;20044;-68
2022/07/04 10:49:51;;;;;;;4.00;2.08;;;20.50;99.90;;;;;;5051197;28;20111;-67
2022/07/04 10:52:17;;;;;;;5.30;2.22;;;20.70;99.90;;;;;;5050063;28;20041;-69
2022/07/04 10:54:44;;;;;;;3.00;1.65;;;20.90;99.90;;;;;;5049948;28;20080;-66
2022/07/04 10:57:20;;;;;;;5.90;2.08;;;20.90;99.90;;;;;;5074205;28;20081;-67
2022/07/04 10:59:56;;;;;;;4.22;2.08;;;20.70;99.90;;;;;;5046923;28;20493;-67
2022/07/04 11:02:25;;;;;;;2.30;1.40;;;20.50;99.90;;;;;;5056242;28;20040;-67
2022/07/04 11:05:03;;;;;;;3.40;1.50;;;20.30;99.90;;;;;;5047243;28;20052;-67
2022/07/04 11:07:29;;;;;;;3.88;1.58;;;20.40;99.90;;;;;;5058877;28;20048;-71
2022/07/04 11:10:13;;;;;;;4.15;1.90;;;20.50;99.90;;;;;;5042905;28;20056;-71
2022/07/04 11:13:06;;;;;;;5.45;1.77;;;20.60;99.90;;;;;;5057507;28;20052;-71
2022/07/04 11:15:31;;;;;;;4.82;2.13;;;20.70;99.90;;;;;;5047259;28;20072;-71
2022/07/04 11:18:01;;;;;;;4.43;1.83;;;20.60;99.90;;;;;;5054022;28;20045;-71
2022/07/04 11:20:32;;;;;;;4.63;2.13;;;20.70;99.90;;;;;;5046756;28;20059;-71
2022/07/04 11:23:19;;;;;;;3.92;2.00;;;20.80;99.90;;;;;;5056379;28;20056;-70
2022/07/04 11:25:46;;;;;;;3.50;2.03;;;20.80;99.90;;;;;;5043519;28;20091;-70
2022/07/04 11:28:30;;;;;;;5.53;2.00;;;20.80;99.90;;;;;;5051337;28;20067;-70
2022/07/04 11:31:02;;;;;;;3.40;2.20;;;20.80;99.90;;;;;;5061237;28;20867;-70
2022/07/04 11:33:34;;;;;;;2.47;1.88;;;21.00;99.90;;;;;;5057752;28;20065;-70
2022/07/04 11:36:06;;;;;;;4.75;1.90;;;21.20;99.90;;;;;;5042599;28;20048;-70
2022/07/04 11:38:55;;;;;;;5.72;2.33;;;21.20;99.90;;;;;;5074973;28;20048;-71
2022/07/04 11:47:16;;;;;;;3.88;1.90;;;21.50;99.90;;;;;;5073670;28;20048;-71
2022/07/04 11:50:00;;;;;;;3.35;1.92;;;21.60;99.90;;;;;;5064037;28;20056;-71
2022/07/04 11:52:29;;;;;;;2.58;1.65;;;21.60;99.90;;;;;;5073563;28;20040;-70
2022/07/04 11:54:55;;;;;;;2.07;1.70;;;21.60;99.90;;;;;;5064285;28;20122;-70
2022/07/04 11:57:37;;;;;;;4.72;1.50;;;21.70;99.90;;;;;;5074024;28;20295;-71
2022/07/04 12:00:14;;;;;;;4.95;2.22;;;21.70;99.90;;;;;;5064935;28;20079;-71
2022/07/04 12:02:41;;;;;;;4.88;1.90;;;22.00;99.90;;;;;;5076434;28;20131;-71
2022/07/04 12:05:09;;;;;;;3.58;1.63;;;22.10;99.90;;;;;;5046979;28;20052;-71
2022/07/04 12:07:38;;;;;;;3.70;1.60;;;22.10;99.90;;;;;;5073471;28;20344;-71
2022/07/04 12:10:10;;;;;;;3.55;1.98;;;21.90;99.90;;;;;;5064105;28;20052;-71
2022/07/04 12:12:50;;;;;;;2.28;1.48;;;21.60;99.90;;;;;;5056898;28;20067;-71
2022/07/04 12:15:15;;;;;;;5.13;2.60;;;21.20;99.90;;;;;;5045067;28;20086;-71
2022/07/04 12:17:41;;;;;;;3.10;1.63;;;21.30;99.90;;;;;;5075994;28;20052;-71
2022/07/04 12:20:17;;;;;;;4.50;1.63;;;21.40;99.90;;;;;;5049326;28;20048;-71
2022/07/04 12:22:55;;;;;;;2.60;1.30;;;21.60;99.90;;;;;;5058865;28;20068;-71
2022/07/04 12:25:29;;;;;;;4.20;1.30;;;21.90;99.90;;;;;;5066941;28;20063;-71
2022/07/04 12:27:59;;;;;;;2.75;1.52;;;21.90;99.90;;;;;;5076539;28;20052;-71
2022/07/04 12:30:26;;;;;;;2.95;1.50;;;22.00;99.90;;;;;;5066317;28;20041;-71
2022/07/04 12:32:56;;;;;;;1.60;1.50;;;22.00;99.90;;;;;;5063111;28;20056;-71
2022/07/04 12:35:38;;;;;;;2.03;1.35;;;22.00;99.90;;;;;;5063729;28;20554;-71
2022/07/04 12:38:15;;;;;;;5.75;1.65;;;22.20;99.90;;;;;;5075289;28;20044;-71
2022/07/04 12:40:51;;;;;;;3.55;1.20;;;22.20;99.90;;;;;;5063473;28;20036;-72
2022/07/04 12:43:17;;;;;;;4.07;1.30;;;22.20;99.90;;;;;;5073251;28;20052;-71
2022/07/04 12:45:48;;;;;;;4.78;1.50;;;22.20;99.90;;;;;;5046649;28;20055;-71
2022/07/04 12:48:21;;;;;;;5.03;1.60;;;22.10;99.90;;;;;;5039372;28;20098;-71
2022/07/04 12:50:47;;;;;;;2.17;1.40;;;22.20;99.90;;;;;;5064041;28;20107;-71
2022/07/04 12:53:13;;;;;;;2.58;1.67;;;22.20;99.90;;;;;;5055597;28;20041;-71
2022/07/04 12:55:42;;;;;;;3.33;1.40;;;22.30;99.90;;;;;;5063582;28;20047;-71
2022/07/04 12:58:08;;;;;;;3.15;1.33;;;22.20;99.90;;;;;;5059028;28;20033;-71
2022/07/04 13:00:34;;;;;;;2.90;1.20;;;22.30;99.90;;;;;;5050734;28;20075;-71
2022/07/04 13:03:00;;;;;;;2.53;1.23;;;22.30;99.90;;;;;;5062433;28;20040;-71
2022/07/04 13:05:26;;;;;;;2.50;1.00;;;22.50;99.90;;;;;;5051288;28;20052;-71